Tiempo atmosférico en la estación meteorológica de Cabo Peñas, Asturias (100 m.)



Fecha
DESCASC
Temp. máxima en grados centígrados (hora)
DESCASC
Temp. mínima en grados centígrados (hora)
DESCASC
Temp. media en grados centígrados
DESCASC
Racha de viento máxima en m/sg (hora)
DESCASC
Velocidad máxima media en intervalos de 10 minutos(hora)
DESCASC
Precipitaciones diarias en mm
DESCASC
Precipitaciones de 00:00 a 06:00 en mm
DESCASC
Precipitaciones de 06:00 a 12:00 en mm
DESCASC
Precipitaciones de 12:00 a 18:00 en mm
DESCASC
Precipitaciones de 18:00 a 24:00 en mm
DESCASC
18-01-2018 13.1 (23:20) 7.9 (04:40) 10.5 14.72 (18:20) 8.06 (18:20) 0 0 0 0 0
17-01-2018 13.4 (00:20) 9.4 (23:40) 11.4 23.89 (03:10) 12.22 (03:10) 0.1 0.1 0 0 0
16-01-2018 15.2 (14:10) 12.3 (21:20) 13.8 22.5 (23:00) 11.11 (03:20) 0 0 0 0 0
15-01-2018 14.8 (23:20) 6.9 (06:00) 10.9 15.28 (21:10) 9.44 (18:00) 0 0 0 0 0
14-01-2018 10.2 (14:30) 7.2 (00:00) 8.7 10 (07:20) 6.11 (02:30) 0.8 0 0.3 0.2 0.3
13-01-2018 11.1 (17:00) 7.1 (00:00) 9.1 14.72 (19:20) 8.06 (18:00) 8.8 2 4 0.1 2.7
12-01-2018 10.9 (14:10) 7.3 (00:00) 9.1 7.78 (01:10) 5.83 (01:20) 0 0 0 0 0
11-01-2018 9.9 (23:00) 6.1 (00:00) 8 24.17 (07:50) 13.89 (16:50) 19.3 12 2.8 3.4 1.1
10-01-2018 11.9 (14:20) 7 (00:00) 9.4 26.67 (14:30) 15.56 (17:50) 2.1 0 0.2 1.9 0
09-01-2018 -- (--) -- (--) -- -- (--) -- (--) -- 0 -- -- 0.2
08-01-2018 12.8 (18:50) 6 (00:00) 9.4 9.17 (16:30) 6.11 (16:50) 0 0 0 0 0
07-01-2018 11.7 (17:00) 5.5 (00:00) 8.6 17.78 (07:30) 4.72 (00:30) 11.1 0.3 4.1 6.4 0.3
06-01-2018 9.9 (14:40) 4.7 (00:00) 7.3 10.28 (15:20) 6.11 (00:50) 2.2 0 0 0 2.2
05-01-2018 17.6 (00:40) 7.5 (00:00) 12.6 24.44 (04:40) 12.78 (04:40) 9.3 5.5 3.7 0.1 0
04-01-2018 18.5 (15:50) 14.2 (04:20) 16.3 19.44 (12:40) 10.83 (16:00) 0 0 0 0 0
03-01-2018 18.7 (02:10) 13.7 (00:00) 16.2 18.89 (04:20) 10.56 (03:50) 0 0 0 0 0
02-01-2018 18.7 (12:00) 12.4 (00:00) 15.6 18.89 (12:10) 10.83 (01:10) 0 0 0 0 0
01-01-2018 16.6 (13:30) 10.4 (00:00) 13.5 28.06 (15:40) 15.28 (15:30) 3.2 0 0 1 2.2
31-12-2017 15.7 (10:10) 7.9 (00:00) 11.8 25.28 (16:20) 16.67 (16:20) 6.5 0 3.2 3.2 0.1
30-12-2017 18.7 (11:40) 12.7 (00:00) 15.7 19.44 (03:00) 11.11 (03:00) 0 0 0 0 0
29-12-2017 17.8 (20:20) 10.3 (00:00) 14 19.17 (08:10) 11.67 (09:20) 4.3 3 1.3 0 0
28-12-2017 14.2 (10:40) 7.6 (00:00) 10.9 22.5 (09:30) 13.89 (09:30) 4 1.2 2.7 0.1 0
27-12-2017 12.7 (02:10) 5.9 (00:00) 9.3 34.17 (03:20) 18.06 (02:00) 35.5 6.8 0.1 22.3 6.3
26-12-2017 15.2 (20:20) 7.2 (00:00) 11.2 30.83 (21:30) 16.67 (23:59) 9.4 0.1 0.1 0.2 9
25-12-2017 16.1 (13:10) 8.1 (00:00) 12.1 21.39 (20:00) 12.5 (20:10) 5.6 0 0 0 5.6
24-12-2017 12.4 (17:20) 5.6 (00:00) 9 10.56 (00:10) 7.22 (00:10) 0 0 0 0 0
23-12-2017 14.1 (13:40) 7.7 (00:00) 10.9 23.89 (23:30) 8.89 (17:00) 0 0 0 0 0
22-12-2017 12.9 (14:50) 7.5 (00:00) 10.2 8.06 (08:00) 6.11 (07:50) 0 0 0 0 0

Gráficas

Temp. máximas Temp. mínimas Temp. medias Precipitaciones Rachas de viento máximas Velocidades máximas media en intervalos de 10 minutos

Datos horarios

Fecha y hora oficial Temperatura (ºC) Velocidad del viento (km/h) Dirección del viento Racha (km/h) Dirección de racha Precipitación (mm) Presión (hPa) Tendencia (hPa) Humedad (%)
2018-01-20 23:00:00 13.6 22 Oeste 55 Sudoeste 0 -- -- 87
2018-01-20 22:00:00 13.9 27 Oeste 53 Noroeste 0 -- -- 86
2018-01-20 21:00:00 13.7 22 Oeste 53 Oeste 0 -- -- 87
2018-01-20 20:00:00 13.6 21 Oeste 45 Oeste 0 -- -- 87
2018-01-20 19:00:00 14 23 Oeste 48 Oeste 0 -- -- 86
2018-01-20 18:00:00 14.4 27 Oeste 48 Oeste 0 -- -- 82
2018-01-20 17:00:00 14.8 28 Oeste 46 Oeste 0 -- -- 76
2018-01-20 16:00:00 15 26 Oeste 54 Oeste 0 -- -- 76
2018-01-20 15:00:00 15.5 30 Oeste 51 Oeste 0 -- -- 73
2018-01-20 14:00:00 15.4 31 Oeste 56 Oeste 0 -- -- 73
2018-01-20 13:00:00 15.2 34 Oeste 51 Oeste 0 -- -- 75
2018-01-20 12:00:00 14.3 23 Sudoeste 42 Oeste 0 -- -- 76
2018-01-20 11:00:00 13.6 27 Sudoeste 51 Oeste 0 -- -- 76
2018-01-20 10:00:00 13.3 28 Oeste 55 Sudoeste 0 -- -- 79
2018-01-20 09:00:00 13.2 33 Oeste 65 Oeste 0 -- -- 76
2018-01-20 08:00:00 12.3 30 Oeste 54 Oeste 0 -- -- 76
2018-01-20 07:00:00 12.1 29 Oeste 57 Oeste 0 -- -- 76
2018-01-20 06:00:00 11.6 18 Noroeste 50 Oeste 0 -- -- 83
2018-01-20 05:00:00 11.3 17 Oeste 32 Oeste 0 -- -- 83
2018-01-20 04:00:00 10.9 17 Oeste 24 Oeste 0 -- -- 76
2018-01-20 03:00:00 10.1 15 Sudoeste 27 Oeste 0 -- -- 76
2018-01-20 02:00:00 11 21 Sudoeste 34 Sudoeste 0 -- -- 76
2018-01-20 01:00:00 10 20 Sudoeste 32 Sudoeste 0 -- -- 79
2018-01-20 00:00:00 9.7 17 Sudoeste 28 Sudoeste 0 -- -- 86
2018-01-19 23:00:00 10.8 15 Oeste 36 Oeste 0 -- -- 88
2018-01-19 22:00:00 11.4 16 Oeste 35 Oeste 0 -- -- 83
2018-01-19 21:00:00 11.4 13 Noroeste 47 Noroeste 0 -- -- 84
2018-01-19 20:00:00 11.4 19 Noroeste 44 Noroeste 0 -- -- 83
2018-01-19 19:00:00 11.6 18 Noroeste 43 Noroeste 0 -- -- 86
2018-01-19 18:00:00 11.9 17 Oeste 40 Oeste 0 -- -- 82
2018-01-19 17:00:00 11.8 22 Oeste 44 Oeste 0 -- -- 79
2018-01-19 16:00:00 11.9 20 Oeste 42 Noroeste 0 -- -- 83
2018-01-19 15:00:00 12 25 Oeste 43 Oeste 0 -- -- 83
2018-01-19 14:00:00 11.7 25 Oeste 44 Oeste 0 -- -- 83
2018-01-19 13:00:00 11.6 26 Noroeste 49 Noroeste 0.1 -- -- 84
2018-01-19 12:00:00 11.6 19 Oeste 44 Oeste 0 -- -- 82
2018-01-19 11:00:00 11.5 15 Noroeste 41 Noroeste 0 -- -- 85
2018-01-19 10:00:00 11 27 Noroeste 49 Noroeste 0.3 -- -- 92
2018-01-19 09:00:00 10.1 33 Noroeste 59 Norte 3.5 -- -- 95
2018-01-19 08:00:00 11.8 17 Oeste 32 Noroeste 0 -- -- 92
2018-01-19 07:00:00 11.9 10 Noroeste 25 Oeste 0 -- -- 92
2018-01-19 06:00:00 11.8 10 Oeste 21 Oeste 0 -- -- 92
2018-01-19 05:00:00 11.4 8 Oeste 24 Oeste 0 -- -- 92
2018-01-19 04:00:00 12 15 Oeste 23 Oeste 0 -- -- 90
2018-01-19 03:00:00 12.2 16 Oeste 30 Oeste 0 -- -- 90
2018-01-19 02:00:00 12.2 15 Oeste 33 Oeste 0 -- -- 91
2018-01-19 01:00:00 12.7 21 Oeste 37 Oeste 0 -- -- 90
2018-01-19 00:00:00 12.4 18 Oeste 31 Oeste 0 -- -- 86
2018-01-18 23:00:00 12.6 14 Sudoeste 27 Sudoeste 0 -- -- 86
2018-01-18 22:00:00 12.4 17 Oeste 28 Oeste 0 -- -- 86
2018-01-18 21:00:00 11.8 17 Sudoeste 34 Sudoeste 0 -- -- 88
2018-01-18 20:00:00 12.6 22 Oeste 48 Oeste 0 -- -- 87
2018-01-18 19:00:00 12.4 27 Oeste 53 Oeste 0 -- -- 87
2018-01-18 18:00:00 12.1 24 Oeste 48 Oeste 0 -- -- 87
2018-01-18 17:00:00 12.2 23 Oeste 49 Oeste 0 -- -- 86
2018-01-18 16:00:00 12.3 22 Oeste 52 Oeste 0 -- -- 87
2018-01-18 15:00:00 11.9 21 Noroeste 51 Oeste 0 -- -- 87
2018-01-18 14:00:00 11.6 24 Oeste 37 Oeste 0 -- -- 87
2018-01-18 13:00:00 11.1 24 Oeste 41 Oeste 0 -- -- 84
2018-01-18 12:00:00 10.2 19 Sudoeste 30 Sudoeste 0 -- -- 86
2018-01-18 11:00:00 9.1 19 Sudoeste 27 Sudoeste 0 -- -- 87
2018-01-18 10:00:00 8.2 18 Sudoeste 26 Sudoeste 0 -- -- 90
2018-01-18 09:00:00 8.1 17 Sudoeste 26 Oeste 0 -- -- 90
2018-01-18 08:00:00 8.8 15 Oeste 24 Oeste 0 -- -- 90
2018-01-18 07:00:00 8.1 13 Oeste 21 Oeste 0 -- -- 90
2018-01-18 06:00:00 8.5 15 Oeste 31 Oeste 0 -- -- 88
2018-01-18 05:00:00 8.4 17 Oeste 27 Oeste 0 -- -- 88
2018-01-18 04:00:00 8.5 19 Sudoeste 28 Oeste 0 -- -- 86
2018-01-18 03:00:00 9.1 17 Oeste 30 Sudoeste 0 -- -- 86
2018-01-18 02:00:00 9.3 18 Oeste 33 Oeste 0 -- -- 84
2018-01-18 01:00:00 9.3 16 Oeste 31 Oeste 0 -- -- 87
2018-01-18 00:00:00 9.6 17 Oeste 28 Sudoeste 0 -- -- 90
2018-01-17 23:00:00 9.7 14 Oeste 28 Oeste 0 -- -- 91
2018-01-17 22:00:00 10.7 13 Oeste 32 Oeste 0 -- -- 84
2018-01-17 21:00:00 10.8 9 Oeste 26 Noroeste 0 -- -- 87
2018-01-17 20:00:00 11 12 Noroeste 32 Oeste 0 -- -- 84
2018-01-17 19:00:00 11 11 Noroeste 27 Noroeste 0 -- -- 86
2018-01-17 18:00:00 11.1 10 Noroeste 35 Oeste 0 -- -- 84
2018-01-17 17:00:00 11.7 10 Noroeste 27 Noroeste 0 -- -- 76
2018-01-17 16:00:00 11.9 13 Oeste 28 Oeste 0 -- -- 82
2018-01-17 15:00:00 12 10 Noroeste 40 Oeste 0 -- -- 81
2018-01-17 14:00:00 12.3 17 Oeste 39 Oeste 0 -- -- 83
2018-01-17 13:00:00 11.4 13 Noroeste 37 Oeste 0 -- -- 83
2018-01-17 12:00:00 10.6 25 Oeste 44 Oeste 0 -- -- 87
2018-01-17 11:00:00 11 22 Oeste 35 Oeste 0 -- -- 83
2018-01-17 10:00:00 11 22 Oeste 42 Oeste 0 -- -- 87
2018-01-17 09:00:00 11 14 Noroeste 54 Noroeste 0 -- -- 87
2018-01-17 08:00:00 10.7 30 Noroeste 59 Oeste 0 -- -- 86
2018-01-17 07:00:00 11.4 21 Noroeste 68 Oeste 0 -- -- 79
2018-01-17 06:00:00 11.7 29 Oeste 60 Oeste 0 -- -- 81
2018-01-17 05:00:00 11.4 26 Noroeste 69 Noroeste 0 -- -- 84
2018-01-17 04:00:00 11.8 35 Noroeste 86 Noroeste 0.1 -- -- 76
2018-01-17 03:00:00 11.9 36 Noroeste 69 Noroeste 0 -- -- 87
2018-01-17 02:00:00 12.5 32 Noroeste 68 Noroeste 0 -- -- 87
2018-01-17 01:00:00 13 25 Noroeste 72 Oeste 0 -- -- 87
2018-01-17 00:00:00 13.2 33 Oeste 78 Noroeste 0 -- -- 83
2018-01-16 23:00:00 13.2 36 Oeste 81 Noroeste 0 -- -- 84
2018-01-16 22:00:00 12.9 22 Noroeste 67 Noroeste 0 -- -- 92
2018-01-16 21:00:00 13 34 Noroeste 69 Noroeste 0 -- -- 91
2018-01-16 20:00:00 13.7 24 Noroeste 60 Oeste 0 -- -- 90
2018-01-16 19:00:00 13.6 20 Noroeste 59 Oeste 0 -- -- 90
2018-01-16 18:00:00 13.5 22 Noroeste 61 Noroeste 0 -- -- 90
2018-01-16 17:00:00 15.1 21 Noroeste 55 Oeste 0 -- -- 83
2018-01-16 16:00:00 14.9 27 Oeste 65 Noroeste 0 -- -- 83
2018-01-16 15:00:00 14.8 25 Oeste 65 Oeste 0 -- -- 84
2018-01-16 14:00:00 14.8 31 Oeste 65 Noroeste 0 -- -- 83
2018-01-16 13:00:00 14 25 Noroeste 58 Noroeste 0 -- -- 87
2018-01-16 12:00:00 13.6 23 Noroeste 51 Noroeste 0 -- -- 88
2018-01-16 11:00:00 13.6 17 Noroeste 37 Norte 0 -- -- 88
2018-01-16 10:00:00 13.4 19 Oeste 41 Noroeste 0 -- -- 87
2018-01-16 09:00:00 13.2 23 Oeste 37 Oeste 0 -- -- 87
2018-01-16 08:00:00 12.7 17 Oeste 45 Oeste 0 -- -- 92
2018-01-16 07:00:00 12.5 19 Oeste 53 Oeste 0 -- -- 92
2018-01-16 06:00:00 13.5 24 Noroeste 76 Oeste 0 -- -- 90
2018-01-16 05:00:00 13.9 34 Oeste 61 Noroeste 0 -- -- 88
2018-01-16 04:00:00 14 30 Oeste 64 Oeste 0 -- -- 86
2018-01-16 03:00:00 14.1 38 Oeste 61 Oeste 0 -- -- 86
2018-01-16 02:00:00 14.1 28 Oeste 65 Oeste 0 -- -- 86
2018-01-16 01:00:00 14.2 28 Oeste 55 Oeste 0 -- -- 86
2018-01-16 00:00:00 14.1 32 Oeste 53 Oeste 0 -- -- 84
2018-01-15 23:00:00 14.1 21 Oeste 48 Oeste 0 -- -- 84
2018-01-15 22:00:00 14 32 Oeste 55 Oeste 0 -- -- 83
2018-01-15 21:00:00 14.6 30 Oeste 49 Oeste 0 -- -- 79
2018-01-15 20:00:00 13.3 25 Sudoeste 41 Sudoeste 0 -- -- 79
2018-01-15 19:00:00 13.3 31 Sudoeste 46 Sudoeste 0 -- -- 76
2018-01-15 18:00:00 13.3 34 Sudoeste 45 Sudoeste 0 -- -- 74
2018-01-15 17:00:00 13.1 27 Sudoeste 39 Sudoeste 0 -- -- 72
2018-01-15 16:00:00 13.1 28 Sudoeste 43 Sudoeste 0 -- -- 63
2018-01-15 15:00:00 12.9 30 Sudoeste 46 Sudoeste 0 -- -- 57
2018-01-15 14:00:00 12.5 26 Sudoeste 42 Sudoeste 0 -- -- 55
2018-01-15 13:00:00 11.4 17 Oeste 32 Sudoeste 0 -- -- 67
2018-01-15 12:00:00 10.7 24 Sudoeste 36 Sudoeste 0 -- -- 68
2018-01-15 11:00:00 9.7 22 Sudoeste 32 Sudoeste 0 -- -- 69
2018-01-15 10:00:00 8.3 17 Sudoeste 23 Sudoeste 0 -- -- 76
2018-01-15 09:00:00 7.8 17 Sudoeste 22 Sudoeste 0 -- -- 81
2018-01-15 08:00:00 7.6 17 Sudoeste 24 Sudoeste 0 -- -- 83
2018-01-15 07:00:00 7.6 17 Sudoeste 22 Sudoeste 0 -- -- 84
2018-01-15 06:00:00 7.1 16 Sudoeste 23 Sudoeste 0 -- -- 86
2018-01-15 05:00:00 7.6 15 Sudoeste 19 Sudoeste 0 -- -- 84
2018-01-15 04:00:00 7.6 14 Sudoeste 20 Sudoeste 0 -- -- 86
2018-01-15 03:00:00 7.7 15 Sudoeste 24 Sudoeste 0 -- -- 87
2018-01-15 02:00:00 8.1 18 Sudoeste 23 Sudoeste 0 -- -- 86
2018-01-15 01:00:00 8.2 17 Sudoeste 23 Sudoeste 0 -- -- 86
2018-01-15 00:00:00 8.2 16 Sudoeste 21 Sudoeste 0 -- -- 86
2018-01-14 23:00:00 8.8 15 Sudoeste 24 Sudoeste 0 -- -- 86
2018-01-14 22:00:00 9 15 Sudoeste 26 Oeste 0 -- -- 88
2018-01-14 21:00:00 9.8 18 Oeste 32 Oeste 0 -- -- 84
2018-01-14 20:00:00 10 10 Noroeste 28 Noroeste 0 -- -- 86
2018-01-14 19:00:00 9.3 10 Oeste 33 Norte 0.3 -- -- 91
2018-01-14 18:00:00 9.9 17 Oeste 33 Oeste 0 -- -- 86
2018-01-14 17:00:00 9.6 13 Oeste 29 Noroeste 0 -- -- 86
2018-01-14 16:00:00 9.2 13 Oeste 35 Oeste 0 -- -- 88
2018-01-14 15:00:00 9.4 17 Oeste 35 Oeste 0 -- -- 84
2018-01-14 14:00:00 9.4 19 Oeste 34 Oeste 0 -- -- 86
2018-01-14 13:00:00 8.8 21 Oeste 33 Oeste 0.2 -- -- 88
2018-01-14 12:00:00 8.3 12 Oeste 29 Sudoeste 0.1 -- -- 88
2018-01-14 11:00:00 8.6 19 Sudoeste 29 Sudoeste 0 -- -- 88
2018-01-14 10:00:00 8 17 Sudoeste 24 Sudoeste 0.1 -- -- 89
2018-01-14 09:00:00 7.2 16 Sudoeste 32 Oeste 0 -- -- 90
2018-01-14 08:00:00 7.5 20 Sudoeste 36 Oeste 0 -- -- 88
2018-01-14 07:00:00 7.8 19 Sudoeste 34 Oeste 0.1 -- -- 87
2018-01-14 06:00:00 8 17 Sudoeste 31 Sudoeste 0 -- -- 86
2018-01-14 05:00:00 8.2 18 Sudoeste 31 Oeste 0 -- -- 84
2018-01-14 04:00:00 7.8 15 Sudoeste 22 Sudoeste 0 -- -- 86
2018-01-14 03:00:00 7.8 16 Sudoeste 28 Sudoeste 0 -- -- 86
2018-01-14 02:00:00 7.8 18 Sudoeste 28 Sudoeste 0 -- -- 86
2018-01-14 01:00:00 8 16 Sudoeste 27 Oeste 0 -- -- 86
2018-01-14 00:00:00 7.9 18 Sudoeste 38 Oeste 0 -- -- 84
2018-01-13 23:00:00 8.8 19 Oeste 47 Noroeste 1 -- -- 88
2018-01-13 22:00:00 8.9 13 Oeste 30 Noroeste 0.2 -- -- 87
2018-01-13 21:00:00 9 7 Noroeste 38 Norte 0 -- -- 88
2018-01-13 20:00:00 9.6 16 Oeste 53 Noroeste 0.7 -- -- 84
2018-01-13 19:00:00 9.5 13 Noroeste 44 Noroeste 0.8 -- -- 87
2018-01-13 18:00:00 9.7 29 Noroeste 50 Noroeste 0 -- -- 84
2018-01-13 17:00:00 11 26 Oeste 42 Oeste 0 -- -- 81
2018-01-13 16:00:00 9.7 16 Sudoeste 35 Oeste 0 -- -- 86
2018-01-13 15:00:00 9.7 23 Oeste 36 Oeste 0 -- -- 85
2018-01-13 14:00:00 9.6 13 Sudoeste 23 Sudoeste 0 -- -- 87
2018-01-13 13:00:00 9.3 14 Sudoeste 22 Sudoeste 0.1 -- -- 88
2018-01-13 12:00:00 9.1 15 Sudoeste 25 Sudoeste 0.4 -- -- 88
2018-01-13 11:00:00 8.6 19 Sudoeste 24 Sudoeste 0.4 -- -- 91
2018-01-13 10:00:00 7.9 15 Sudoeste 20 Sudoeste 0.3 -- -- 92
2018-01-13 09:00:00 7.6 12 Sudoeste 19 Sudoeste 0.6 -- -- 92
2018-01-13 08:00:00 7.3 6 Sudoeste 15 Sudeste 0.7 -- -- 90
2018-01-13 07:00:00 7.5 9 Sudeste 18 Sudeste 1.6 -- -- 91
2018-01-13 06:00:00 7.4 8 Sur 24 Oeste 1.7 -- -- 92
2018-01-13 05:00:00 8.9 15 Oeste 26 Oeste 0.3 -- -- 91
2018-01-13 04:00:00 8.2 14 Oeste 21 Sudoeste 0 -- -- 83
2018-01-13 03:00:00 8.5 4 Sudeste 10 Sudeste 0 -- -- 76
2018-01-13 02:00:00 8.8 4 Sur 21 Sudeste 0 -- -- 76
2018-01-13 01:00:00 8.2 17 Sudeste 22 Sudeste 0 -- -- 82
2018-01-13 00:00:00 8.5 7 Sudoeste 12 Sudoeste 0 -- -- 79
2018-01-12 23:00:00 9.1 5 Sur 17 Sudeste 0 -- -- 86
2018-01-12 22:00:00 9.1 14 Sudeste 18 Sudeste 0 -- -- 88
2018-01-12 21:00:00 9 16 Sudeste 22 Sudeste 0 -- -- 88
2018-01-12 20:00:00 9.3 17 Sudeste 23 Sudeste 0 -- -- 88
2018-01-12 19:00:00 9.2 18 Sudeste 23 Sudeste 0 -- -- 88
2018-01-12 18:00:00 9.2 16 Sudeste 19 Sudeste 0 -- -- 88
2018-01-12 17:00:00 9.8 9 Sudeste 13 Sudeste 0 -- -- 87
2018-01-12 16:00:00 10.1 7 Sudeste 9 Sudeste 0 -- -- 84
2018-01-12 15:00:00 10.6 5 Este 13 Sudeste 0 -- -- 84
2018-01-12 14:00:00 10.8 8 Sudeste 13 Sudeste 0 -- -- 87
2018-01-12 13:00:00 10 3 Sur 9 Sur 0 -- -- 86
2018-01-12 12:00:00 9.5 4 Sur 15 Sur 0 -- -- 85
2018-01-12 11:00:00 8.8 5 Sur 12 Sur 0 -- -- 86
2018-01-12 10:00:00 8.9 4 Sur 10 Sudeste 0 -- -- 86
2018-01-12 09:00:00 8.1 8 Sur 12 Sudoeste 0 -- -- 87
2018-01-12 08:00:00 8.1 12 Sudoeste 15 Sudoeste 0 -- -- 87
2018-01-12 07:00:00 8.6 12 Sudoeste 17 Sudoeste 0 -- -- 88
2018-01-12 06:00:00 8 13 Sudoeste 15 Sudoeste 0 -- -- 88
2018-01-12 05:00:00 8.7 12 Sudoeste 19 Sudoeste 0 -- -- 88
2018-01-12 04:00:00 8.1 15 Sudoeste 22 Sudoeste 0 -- -- 90
2018-01-12 03:00:00 8.6 16 Sudoeste 24 Sudoeste 0 -- -- 90
2018-01-12 02:00:00 8.9 17 Sudoeste 28 Sudoeste 0 -- -- 90
2018-01-12 01:00:00 9 18 Sudoeste 27 Oeste 0 -- -- 90
2018-01-12 00:00:00 9.6 18 Oeste 30 Sudoeste 0.1 -- -- 90
2018-01-11 23:00:00 9.7 21 Oeste 48 Oeste 0 -- -- 91
2018-01-11 22:00:00 9.6 30 Oeste 48 Oeste 0 -- -- 92
2018-01-11 21:00:00 9.4 35 Oeste 53 Oeste 0.1 -- -- 92
2018-01-11 20:00:00 9 36 Oeste 68 Oeste 0.1 -- -- 93
2018-01-11 19:00:00 8.9 39 Oeste 80 Oeste 0.8 -- -- 93
2018-01-11 18:00:00 9.5 48 Oeste 78 Oeste 0.8 -- -- 93
2018-01-11 17:00:00 9.1 50 Oeste 83 Oeste 1.1 -- -- 92
2018-01-11 16:00:00 9.5 42 Oeste 82 Oeste 1 -- -- 90
2018-01-11 15:00:00 9.2 49 Oeste 77 Oeste 0.5 -- -- 90
2018-01-11 14:00:00 9.2 44 Oeste 68 Oeste 0 -- -- 87
2018-01-11 13:00:00 9.2 36 Oeste 69 Oeste 0 -- -- 84
2018-01-11 12:00:00 9.2 36 Oeste 71 Oeste 0.1 -- -- 84
2018-01-11 11:00:00 8.6 40 Oeste 67 Oeste 0.3 -- -- 86
2018-01-11 10:00:00 7.7 39 Oeste 62 Oeste 0 -- -- 90
2018-01-11 09:00:00 7.8 35 Oeste 67 Oeste 0.3 -- -- 86
2018-01-11 08:00:00 7.5 37 Oeste 87 Noroeste 1 -- -- 88
2018-01-11 07:00:00 7.9 32 Oeste 70 Oeste 1.1 -- -- 90
2018-01-11 06:00:00 7.8 33 Oeste 75 Oeste 0.5 -- -- 90
2018-01-11 05:00:00 7.7 28 Oeste 73 Noroeste 1.1 -- -- 91
2018-01-11 04:00:00 9 30 Oeste 80 Oeste 1.2 -- -- 81
2018-01-11 03:00:00 7.8 37 Oeste 72 Sudoeste 7.3 -- -- 90
2018-01-11 02:00:00 7.5 38 Oeste 78 Oeste 1.3 -- -- 92
2018-01-11 01:00:00 7.8 41 Oeste 74 Oeste 0.6 -- -- 90
2018-01-11 00:00:00 8.9 38 Oeste 76 Oeste 0 -- -- 82
2018-01-10 23:00:00 8.6 31 Sudoeste 47 Sudoeste 0 -- -- 76
2018-01-10 22:00:00 8.5 31 Sudoeste 47 Sudoeste 0 -- -- 77
2018-01-10 21:00:00 8.1 31 Sudoeste 59 Oeste 0 -- -- 82
2018-01-10 20:00:00 8.5 33 Oeste 67 Sudoeste 0 -- -- 83
2018-01-10 19:00:00 9.2 33 Oeste 80 Oeste 0 -- -- 82
2018-01-10 18:00:00 8.9 49 Oeste 93 Oeste 0.3 -- -- 82
2018-01-10 17:00:00 8.5 41 Oeste 89 Oeste 1.1 -- -- 84
2018-01-10 16:00:00 9.6 32 Sudoeste 72 Sudoeste 0 -- -- 82
2018-01-10 15:00:00 8.9 49 Oeste 96 Sudoeste 0 -- -- 86
2018-01-10 14:00:00 11.7 24 Sudoeste 50 Oeste 0.1 -- -- 81
2018-01-10 13:00:00 9.7 18 Oeste 48 Noroeste 0.4 -- -- 88
2018-01-10 12:00:00 9.1 7 Sur 21 Sur 0.2 -- -- 73
2018-01-10 11:00:00 10 8 Sudeste 23 Sudeste 0 -- -- 66
2018-01-10 10:00:00 9.6 7 Sur 23 Sur 0 -- -- 68
2018-01-10 09:00:00 8.8 4 Sur 14 Sur 0 -- -- 73
2018-01-10 08:00:00 8.5 -- -- 26 Norte 0 -- -- 76
2018-01-10 07:00:00 9.6 -- -- 29 Norte 0 -- -- 74
2018-01-10 06:00:00 9.3 -- -- 28 Norte 0 -- -- 76
2018-01-10 05:00:00 9.7 -- -- 27 Norte 0 -- -- 76
2018-01-10 04:00:00 10.2 -- -- 31 Norte 0 -- -- 79
2018-01-10 03:00:00 10.1 -- -- 39 Norte 0 -- -- 82
2018-01-10 02:00:00 10.9 -- -- 33 Norte 0 -- -- 82
2018-01-10 01:00:00 10.9 -- -- 42 Norte 0 -- -- 85
2018-01-10 00:00:00 11 -- -- 58 Norte 0.2 -- -- 86
2018-01-09 23:00:00 11.1 -- -- 55 Norte 0 -- -- 83
2018-01-09 22:00:00 11.4 -- -- 53 Norte 0 -- -- 87
2018-01-09 21:00:00 11.3 -- -- 32 Norte 0 -- -- 83
2018-01-09 20:00:00 11.7 -- -- 32 Norte 0 -- -- 76
2018-01-09 19:00:00 11.8 -- -- 28 Norte 0 -- -- 81
2018-01-09 18:00:00 11.9 -- -- 36 Norte 0 -- -- 83
2018-01-09 17:00:00 12.4 -- -- 56 Norte 0 -- -- 83
2018-01-09 16:00:00 10.5 -- -- 26 Norte 0.2 -- -- 88
2018-01-09 15:00:00 10 -- -- 17 Norte 0 -- -- 83
2018-01-09 14:00:00 9.1 -- -- 29 Norte 0.6 -- -- 87
2018-01-09 13:00:00 -- -- -- -- -- -- -- -- --
2018-01-09 12:00:00 -- -- -- -- -- -- -- -- --
2018-01-09 11:00:00 12.1 -- -- 29 Norte 0 -- -- 61
2018-01-09 10:00:00 9.7 -- -- 25 Norte 0 -- -- 64
2018-01-09 09:00:00 9.7 -- -- 27 Norte 0 -- -- 63
2018-01-09 08:00:00 9.3 -- -- 27 Norte 0 -- -- 70
2018-01-09 07:00:00 8.8 -- -- 14 Norte 0 -- -- 76
2018-01-09 06:00:00 8.7 -- -- 17 Norte 0 -- -- 79
2018-01-09 05:00:00 9 -- -- 20 Norte 0 -- -- 79
2018-01-09 04:00:00 10.1 -- -- 20 Norte 0 -- -- 79
2018-01-09 03:00:00 8.2 -- -- 24 Norte 0 -- -- 82
2018-01-09 02:00:00 9 -- -- 22 Norte 0 -- -- 83
2018-01-09 01:00:00 9.7 -- -- 17 Norte 0 -- -- 82
2018-01-09 00:00:00 9.9 -- -- 19 Norte 0 -- -- 87
2018-01-08 23:00:00 10.1 -- -- 22 Norte 0 -- -- 90
2018-01-08 22:00:00 11.1 -- -- 30 Norte 0 -- -- 89
2018-01-08 21:00:00 11 -- -- 26 Norte 0 -- -- 90
2018-01-08 20:00:00 11.2 -- -- 26 Norte 0 -- -- 89
2018-01-08 19:00:00 11.2 -- -- 29 Norte 0 -- -- 87
2018-01-08 18:00:00 10.5 -- -- 30 Norte 0 -- -- 86
2018-01-08 17:00:00 11.4 -- -- 33 Norte 0 -- -- 86
2018-01-08 16:00:00 11.5 -- -- 24 Norte 0 -- -- 89
2018-01-08 15:00:00 10.6 -- -- 22 Norte 0 -- -- 89
2018-01-08 14:00:00 10.5 -- -- 23 Norte 0 -- -- 89
2018-01-08 13:00:00 10.3 -- -- 24 Norte 0 -- -- 88
2018-01-08 12:00:00 9.5 -- -- 22 Norte 0 -- -- 90
2018-01-08 11:00:00 9.2 -- -- 23 Norte 0 -- -- 90
2018-01-08 10:00:00 8.1 -- -- 22 Norte 0 -- -- 89
2018-01-08 09:00:00 9 -- -- 21 Norte 0 -- -- 89
2018-01-08 08:00:00 8.1 -- -- 21 Norte 0 -- -- 90
2018-01-08 07:00:00 7.8 -- -- 22 Norte 0 -- -- 91
2018-01-08 06:00:00 7.3 -- -- 19 Norte 0 -- -- 90
2018-01-08 05:00:00 7.6 -- -- 14 Norte 0 -- -- 90
2018-01-08 04:00:00 7.9 -- -- 13 Norte 0 -- -- 90
2018-01-08 03:00:00 7.7 -- -- 15 Norte 0 -- -- 90
2018-01-08 02:00:00 7.6 -- -- 11 Norte 0 -- -- 91
2018-01-08 01:00:00 7.7 -- -- 8 Norte 0 -- -- 92
2018-01-08 00:00:00 8.6 -- -- 8 Norte 0 -- -- 92
2018-01-07 23:00:00 8.4 -- -- 13 Norte 0 -- -- 92
2018-01-07 22:00:00 7.4 -- -- 16 Norte 0 -- -- 94
2018-01-07 21:00:00 9.6 -- -- 14 Norte 0.1 -- -- 94
2018-01-07 20:00:00 8.4 -- -- 14 Norte 0.1 -- -- 94
2018-01-07 19:00:00 8.6 -- -- 17 Norte 0.1 -- -- 92
2018-01-07 18:00:00 10.1 -- -- 21 Norte 1.1 -- -- 92
2018-01-07 17:00:00 10.7 -- -- 24 Norte 0.3 -- -- 94
2018-01-07 16:00:00 10.2 -- -- 25 Norte 0.9 -- -- 94
2018-01-07 15:00:00 9.7 -- -- 24 Norte 1.2 -- -- 92
2018-01-07 14:00:00 9.5 -- -- 24 Norte 1.4 -- -- 92
2018-01-07 13:00:00 9.4 -- -- 28 Norte 1.5 -- -- 92
2018-01-07 12:00:00 9.1 -- -- 28 Norte 1.4 -- -- 92
2018-01-07 11:00:00 8.9 -- -- 44 Norte 1.4 -- -- 91
2018-01-07 10:00:00 9.4 -- -- 55 Norte 0.1 -- -- 87
2018-01-07 09:00:00 8.9 -- -- 50 Norte 0 -- -- 86
2018-01-07 08:00:00 8.7 -- -- 64 Norte 0.9 -- -- 89
2018-01-07 07:00:00 9.5 -- -- 47 Norte 0.3 -- -- 84
2018-01-07 06:00:00 9.9 -- -- 57 Norte 0 -- -- 84
2018-01-07 05:00:00 9.1 -- -- 33 Norte 0 -- -- 79
2018-01-07 04:00:00 9.2 -- -- 33 Norte 0.1 -- -- 83
2018-01-07 03:00:00 8.9 -- -- 29 Norte 0 -- -- 83
2018-01-07 02:00:00 8.1 -- -- 27 Norte 0 -- -- 89
2018-01-07 01:00:00 7.7 -- -- 23 Norte 0.2 -- -- 91
2018-01-07 00:00:00 7.1 -- -- 19 Norte 1.9 -- -- 91
2018-01-06 23:00:00 6.6 -- -- 23 Norte 0.3 -- -- 92
2018-01-06 22:00:00 5.9 -- -- 19 Norte 0 -- -- 92
2018-01-06 21:00:00 5.7 -- -- 16 Norte 0 -- -- 92
2018-01-06 20:00:00 6.2 -- -- 13 Norte 0 -- -- 90
2018-01-06 19:00:00 7.2 -- -- 21 Norte 0 -- -- 87
2018-01-06 18:00:00 7.1 -- -- 23 Norte 0 -- -- 91
2018-01-06 17:00:00 7.5 -- -- 22 Norte 0 -- -- 88
2018-01-06 16:00:00 8 -- -- 37 Norte 0 -- -- 85
2018-01-06 15:00:00 9.4 -- -- 34 Norte 0 -- -- 85
2018-01-06 14:00:00 8.4 -- -- 29 Norte 0 -- -- 79
2018-01-06 13:00:00 8.5 -- -- 26 Norte 0 -- -- 81
2018-01-06 12:00:00 7.9 -- -- 22 Norte 0 -- -- 76
2018-01-06 11:00:00 9 -- -- 27 Norte 0 -- -- 79
2018-01-06 10:00:00 6.9 -- -- 22 Norte 0 -- -- 83
2018-01-06 09:00:00 7.3 -- -- 21 Norte 0 -- -- 84
2018-01-06 08:00:00 6.5 -- -- 24 Norte 0 -- -- 85
2018-01-06 07:00:00 6.7 -- -- 23 Norte 0 -- -- 84
2018-01-06 06:00:00 7.1 -- -- 28 Norte 0 -- -- 81
2018-01-06 05:00:00 7.8 -- -- 34 Norte 0 -- -- 79
2018-01-06 04:00:00 8.3 -- -- 30 Norte 0 -- -- 76
2018-01-06 03:00:00 7.7 -- -- 27 Norte 0 -- -- 76
2018-01-06 02:00:00 7.8 -- -- 27 Norte 0 -- -- 78
2018-01-06 01:00:00 8 -- -- 31 Norte 0 -- -- 76
2018-01-06 00:00:00 8.1 -- -- 33 Norte 0 -- -- 76
2018-01-05 23:00:00 9 -- -- 44 Norte 0 -- -- 81
2018-01-05 22:00:00 8.7 -- -- 47 Norte 0 -- -- 86
2018-01-05 21:00:00 9.3 -- -- 45 Norte 0 -- -- 75
2018-01-05 20:00:00 9.4 -- -- 46 Norte 0 -- -- 75
2018-01-05 19:00:00 9.4 -- -- 44 Norte 0 -- -- 76
2018-01-05 18:00:00 10 -- -- 58 Norte 0 -- -- 82
2018-01-05 17:00:00 8.9 -- -- 65 Norte 0 -- -- 84
2018-01-05 16:00:00 10.1 -- -- 56 Norte 0 -- -- 76
2018-01-05 15:00:00 10.7 -- -- 61 Norte 0 -- -- 79
2018-01-05 14:00:00 10.6 -- -- 49 Norte 0 -- -- 82
2018-01-05 13:00:00 10.8 -- -- 55 Norte 0.1 -- -- 83
2018-01-05 12:00:00 10.8 -- -- 42 Norte 0 -- -- 84
2018-01-05 11:00:00 10.2 -- -- 45 Norte 0 -- -- 87
2018-01-05 10:00:00 9.9 -- -- 38 Norte 0 -- -- 86
2018-01-05 09:00:00 9.4 -- -- 37 Norte 0.4 -- -- 87
2018-01-05 08:00:00 10.1 -- -- 51 Norte 1.9 -- -- 91
2018-01-05 07:00:00 10.2 -- -- 61 Norte 1.4 -- -- 92
2018-01-05 06:00:00 10.8 -- -- 71 Norte 4 -- -- 94
2018-01-05 05:00:00 11.1 -- -- 88 Norte 1.5 -- -- 94
2018-01-05 04:00:00 15.4 -- -- 38 Norte 0 -- -- 75
2018-01-05 03:00:00 16.3 -- -- 23 Norte 0 -- -- 61
2018-01-05 02:00:00 16.3 -- -- 31 Norte 0 -- -- 62
2018-01-05 01:00:00 16.9 -- -- 42 Norte 0 -- -- 62
2018-01-05 00:00:00 16.6 -- -- 46 Norte 0 -- -- 65
2018-01-04 23:00:00 16.7 -- -- 47 Norte 0 -- -- 63
2018-01-04 22:00:00 16.4 -- -- 51 Norte 0 -- -- 65
2018-01-04 21:00:00 16.7 -- -- 62 Norte 0 -- -- 64
2018-01-04 20:00:00 16.7 -- -- 62 Norte 0 -- -- 66
2018-01-04 19:00:00 16.3 -- -- 54 Norte 0 -- -- 66
2018-01-04 18:00:00 17.6 -- -- 55 Norte 0 -- -- 63
2018-01-04 17:00:00 16.8 -- -- 51 Norte 0 -- -- 66
2018-01-04 16:00:00 17.5 -- -- 58 Norte 0 -- -- 65
2018-01-04 15:00:00 16.6 -- -- 58 Norte 0 -- -- 74
2018-01-04 14:00:00 16.3 -- -- 60 Norte 0 -- -- 75
2018-01-04 13:00:00 15.7 -- -- 70 Norte 0 -- -- 73
2018-01-04 12:00:00 16.5 -- -- 64 Norte 0 -- -- 67
2018-01-04 11:00:00 16.9 -- -- 57 Norte 0 -- -- 66
2018-01-04 10:00:00 15.5 -- -- 41 Norte 0 -- -- 76
2018-01-04 09:00:00 16.1 -- -- 44 Norte 0 -- -- 76
2018-01-04 08:00:00 15.6 -- -- 37 Norte 0 -- -- 79
2018-01-04 07:00:00 15.6 -- -- 60 Norte 0 -- -- 76
2018-01-04 06:00:00 16.4 -- -- 54 Norte 0 -- -- 74
2018-01-04 05:00:00 16.6 -- -- 64 Norte 0 -- -- 82
2018-01-04 04:00:00 15.3 -- -- 58 Norte 0 -- -- 85
2018-01-04 03:00:00 15.9 -- -- 56 Norte 0 -- -- 81
2018-01-04 02:00:00 15.2 -- -- 45 Norte 0 -- -- 86
2018-01-04 01:00:00 15.2 -- -- 51 Norte 0 -- -- 86
2018-01-04 00:00:00 15.3 -- -- 50 Norte 0 -- -- 85
2018-01-03 23:00:00 15.2 -- -- 49 Norte 0 -- -- 89
2018-01-03 22:00:00 15.3 -- -- 46 Norte 0 -- -- 89
2018-01-03 21:00:00 15.1 -- -- 47 Norte 0 -- -- 89
2018-01-03 20:00:00 16.7 -- -- 59 Norte 0 -- -- 85
2018-01-03 19:00:00 16.4 -- -- 62 Norte 0 -- -- 86
2018-01-03 18:00:00 16 -- -- 50 Norte 0 -- -- 86
2018-01-03 17:00:00 16.3 -- -- 55 Norte 0 -- -- 85
2018-01-03 16:00:00 15.7 -- -- 50 Norte 0 -- -- 90
2018-01-03 15:00:00 14.8 -- -- 46 Norte 0 -- -- 91
2018-01-03 14:00:00 14.9 -- -- 53 Norte 0 -- -- 91
2018-01-03 13:00:00 14.8 -- -- 46 Norte 0 -- -- 91
2018-01-03 12:00:00 15.1 -- -- 37 Norte 0 -- -- 91
2018-01-03 11:00:00 15 -- -- 39 Norte 0 -- -- 91
2018-01-03 10:00:00 14.7 -- -- 50 Norte 0 -- -- 91
2018-01-03 09:00:00 15.2 -- -- 54 Norte 0 -- -- 89
2018-01-03 08:00:00 16.9 -- -- 68 Norte 0 -- -- 86
2018-01-03 07:00:00 15.8 -- -- 60 Norte 0 -- -- 89
2018-01-03 06:00:00 15.5 -- -- 65 Norte 0 -- -- 90
2018-01-03 05:00:00 16.2 -- -- 68 Norte 0 -- -- 85
2018-01-03 04:00:00 17.1 -- -- 64 Norte 0 -- -- 85
2018-01-03 03:00:00 16.4 -- -- 67 Norte 0 -- -- 84
2018-01-03 02:00:00 17.6 -- -- 52 Norte 0 -- -- 76
2018-01-03 01:00:00 17.4 -- -- 56 Norte 0 -- -- 79
2018-01-03 00:00:00 16 -- -- 50 Norte 0 -- -- 86
2018-01-02 23:00:00 16.1 -- -- 46 Norte 0 -- -- 86
2018-01-02 22:00:00 16.1 -- -- 36 Norte 0 -- -- 84
2018-01-02 21:00:00 16.4 -- -- 43 Norte 0 -- -- 82
2018-01-02 20:00:00 16.3 -- -- 45 Norte 0 -- -- 85
2018-01-02 19:00:00 14.9 -- -- 39 Norte 0 -- -- 91
2018-01-02 18:00:00 14.8 -- -- 53 Norte 0 -- -- 91
2018-01-02 17:00:00 15 -- -- 46 Norte 0 -- -- 91
2018-01-02 16:00:00 15.5 -- -- 58 Norte 0 -- -- 87
2018-01-02 15:00:00 16.5 -- -- 37 Norte 0 -- -- 81
2018-01-02 14:00:00 16 -- -- 48 Norte 0 -- -- 86
2018-01-02 13:00:00 15.9 -- -- 68 Norte 0 -- -- 85
2018-01-02 12:00:00 17.3 -- -- 60 Norte 0 -- -- 76
2018-01-02 11:00:00 17.3 33 Nordeste 59 Norte 0 -- -- 75
2018-01-02 10:00:00 16.4 28 Nordeste 57 Nordeste 0 -- -- 76
2018-01-02 09:00:00 15.6 28 Nordeste 49 Nordeste 0 -- -- 76
2018-01-02 08:00:00 15.5 36 Nordeste 53 Nordeste 0 -- -- 75
2018-01-02 07:00:00 15 33 Nordeste 45 Nordeste 0 -- -- 75
2018-01-02 06:00:00 14.7 30 Nordeste 45 Nordeste 0 -- -- 76
2018-01-02 05:00:00 14.7 23 Norte 38 Norte 0 -- -- 79
2018-01-02 04:00:00 13.6 24 Norte 35 Nordeste 0 -- -- 76
2018-01-02 03:00:00 13.2 21 Nordeste 39 Nordeste 0 -- -- 79
2018-01-02 02:00:00 13.7 25 Nordeste 61 Nordeste 0 -- -- 82
2018-01-02 01:00:00 13.7 34 Nordeste 60 Nordeste 0 -- -- 80
2018-01-02 00:00:00 13.5 30 Nordeste 50 Nordeste 0.4 -- -- 91
2018-01-01 23:00:00 12.8 11 Nordeste 30 Nordeste 0 -- -- 94
2018-01-01 22:00:00 12.5 17 Nordeste 43 Nordeste 0.3 -- -- 94
2018-01-01 21:00:00 12.9 18 Nordeste 63 Nordeste 0.2 -- -- 92
2018-01-01 20:00:00 12.7 31 Nordeste 75 Nordeste 0.8 -- -- 92
2018-01-01 19:00:00 12.3 31 Nordeste 73 Nordeste 0.5 -- -- 94
2018-01-01 18:00:00 12.5 36 Nordeste 74 Nordeste 0.1 -- -- 91
2018-01-01 17:00:00 13.6 46 Nordeste 94 Nordeste 0.2 -- -- 87
2018-01-01 16:00:00 12.5 40 Nordeste 101 Nordeste 0.5 -- -- 92
2018-01-01 15:00:00 14 53 Nordeste 87 Nordeste 0.2 -- -- 86
2018-01-01 14:00:00 15.3 44 Nordeste 85 Nordeste 0 -- -- 73
2018-01-01 13:00:00 15 47 Nordeste 82 Nordeste 0 -- -- 71
2018-01-01 12:00:00 14.4 39 Nordeste 81 Nordeste 0 -- -- 68
2018-01-01 11:00:00 14.9 41 Nordeste 69 Nordeste 0 -- -- 68
2018-01-01 10:00:00 14.1 37 Nordeste 66 Nordeste 0 -- -- 68
2018-01-01 09:00:00 13.7 39 Nordeste 72 Nordeste 0 -- -- 67
2018-01-01 08:00:00 13.5 34 Nordeste 62 Nordeste 0 -- -- 66
2018-01-01 07:00:00 13.3 36 Nordeste 57 Nordeste 0 -- -- 62
2018-01-01 06:00:00 12.9 28 Nordeste 50 Nordeste 0 -- -- 67
2018-01-01 05:00:00 12.2 25 Nordeste 51 Nordeste 0 -- -- 67
2018-01-01 04:00:00 12 23 Nordeste 53 Nordeste 0 -- -- 70
2018-01-01 03:00:00 12.2 39 Nordeste 57 Nordeste 0 -- -- 69
2018-01-01 02:00:00 11 35 Nordeste 50 Nordeste 0 -- -- 71
2018-01-01 01:00:00 11.6 22 Nordeste 48 Este 0 -- -- 73
2018-01-01 00:00:00 10.6 28 Nordeste 62 Nordeste 0 -- -- 70
2017-12-31 23:00:00 12.1 32 Nordeste 61 Nordeste 0 -- -- 70
2017-12-31 22:00:00 11.6 33 Nordeste 58 Nordeste 0 -- -- 72
2017-12-31 21:00:00 11.7 37 Nordeste 68 Este 0 -- -- 69
2017-12-31 20:00:00 11.5 37 Nordeste 70 Nordeste 0 -- -- 75
2017-12-31 19:00:00 10.4 35 Nordeste 72 Nordeste 0.1 -- -- 85
2017-12-31 18:00:00 10.3 27 Nordeste 48 Nordeste 0 -- -- 81
2017-12-31 17:00:00 9.5 31 Nordeste 91 Este 1.1 -- -- 82
2017-12-31 16:00:00 9.8 51 Nordeste 86 Nordeste 1 -- -- 90
2017-12-31 15:00:00 11.1 36 Nordeste 51 Nordeste 0 -- -- 82
2017-12-31 14:00:00 10.4 31 Nordeste 78 Nordeste 0.8 -- -- 84
2017-12-31 13:00:00 11.2 37 Nordeste 72 Nordeste 0.3 -- -- 85
2017-12-31 12:00:00 10 39 Nordeste 71 Nordeste 2.3 -- -- 92
2017-12-31 11:00:00 10.1 36 Nordeste 72 Nordeste 0.9 -- -- 91
2017-12-31 10:00:00 14.9 10 Nordeste 23 Nordeste 0 -- -- 63
2017-12-31 09:00:00 14.4 9 Nordeste 21 Nordeste 0 -- -- 60
2017-12-31 08:00:00 12.6 13 Nordeste 21 Nordeste 0 -- -- 68
2017-12-31 07:00:00 11.7 16 Nordeste 23 Nordeste 0 -- -- 76
2017-12-31 06:00:00 13.9 11 Nordeste 17 Nordeste 0 -- -- 69
2017-12-31 05:00:00 13.5 13 Nordeste 16 Nordeste 0 -- -- 70
2017-12-31 04:00:00 12.6 6 Nordeste 18 Nordeste 0 -- -- 72
2017-12-31 03:00:00 13 10 Nordeste 14 Nordeste 0 -- -- 68
2017-12-31 02:00:00 14.2 5 Nordeste 10 Nordeste 0 -- -- 67
2017-12-31 01:00:00 14.2 0 Calma 7 Nordeste 0 -- -- 75